createdAt,value
2019-06-10T00:02:07.150Z,7.47
2019-06-10T00:04:36.954Z,5.60
2019-06-10T00:07:07.339Z,5.13
2019-06-10T00:09:37.404Z,8.13
2019-06-10T00:12:08.156Z,6.63
2019-06-10T00:14:38.486Z,6.27
2019-06-10T00:17:08.090Z,7.33
2019-06-10T00:19:37.585Z,11.33
2019-06-10T00:22:08.524Z,8.50
2019-06-10T00:24:40.797Z,7.03
2019-06-10T00:27:11.710Z,8.53
2019-06-10T00:29:41.114Z,7.30
2019-06-10T00:32:13.120Z,5.73
2019-06-10T00:34:42.058Z,10.07
2019-06-10T00:37:14.518Z,9.43
2019-06-10T00:39:43.235Z,8.90
2019-06-10T00:42:14.996Z,6.37
2019-06-10T00:44:43.934Z,4.70
2019-06-10T00:47:15.169Z,6.63
2019-06-10T00:49:44.567Z,6.97
2019-06-10T00:52:14.188Z,6.87
2019-06-10T00:54:43.828Z,5.17
2019-06-10T00:57:13.790Z,7.20
2019-06-10T00:59:43.461Z,5.73
2019-06-10T01:02:14.518Z,8.70
2019-06-10T01:04:44.205Z,6.07
2019-06-10T01:07:14.930Z,10.47
2019-06-10T01:09:44.547Z,6.90
2019-06-10T01:12:14.952Z,5.90
2019-06-10T01:14:44.684Z,5.63
2019-06-10T01:17:15.518Z,5.77
2019-06-10T01:19:45.201Z,10.40
2019-06-10T01:22:15.884Z,9.70
2019-06-10T01:24:45.963Z,6.13
2019-06-10T01:27:15.442Z,6.53
2019-06-10T01:29:44.930Z,7.70
2019-06-10T01:32:15.043Z,7.07
2019-06-10T01:34:45.295Z,7.93
2019-06-10T01:37:15.980Z,8.90
2019-06-10T01:39:45.970Z,6.87
2019-06-10T01:42:17.057Z,7.17
2019-06-10T01:44:46.740Z,9.97
2019-06-10T01:47:17.495Z,7.80
2019-06-10T01:49:47.494Z,9.77
2019-06-10T01:52:18.237Z,8.63
2019-06-10T01:54:47.906Z,9.00
2019-06-10T01:57:18.656Z,10.90
2019-06-10T01:59:50.726Z,8.23
2019-06-10T02:02:23.922Z,9.87
2019-06-10T02:04:53.371Z,11.37
2019-06-10T02:07:23.424Z,13.63
2019-06-10T02:09:52.905Z,11.23
2019-06-10T02:12:24.240Z,9.53
2019-06-10T02:14:54.104Z,8.63
2019-06-10T02:17:24.136Z,9.53
2019-06-10T02:19:53.851Z,10.97
2019-06-10T02:22:24.186Z,7.93
2019-06-10T02:24:54.060Z,8.70
2019-06-10T02:27:23.610Z,9.73
2019-06-10T02:29:53.189Z,10.43
2019-06-10T02:32:31.022Z,8.70
2019-06-10T02:35:07.871Z,18.57
2019-06-10T02:37:31.963Z,11.03
2019-06-10T02:39:56.425Z,10.07
2019-06-10T02:42:36.008Z,9.70
2019-06-10T02:45:06.358Z,9.20
2019-06-10T02:47:37.918Z,14.97
2019-06-10T02:50:09.009Z,13.03
2019-06-10T02:52:38.999Z,9.70
2019-06-10T02:55:08.704Z,9.93
2019-06-10T02:57:40.333Z,11.50
2019-06-10T03:00:20.730Z,12.40
2019-06-10T03:02:45.177Z,10.43
2019-06-10T03:05:14.501Z,11.20
2019-06-10T03:07:44.810Z,11.23
2019-06-10T03:10:16.078Z,10.30
2019-06-10T03:12:45.638Z,13.00
2019-06-10T03:15:15.759Z,9.90
2019-06-10T03:17:45.574Z,9.53
2019-06-10T03:20:16.031Z,9.77
2019-06-10T03:22:45.734Z,10.80
2019-06-10T03:25:16.315Z,11.30
2019-06-10T03:27:45.931Z,12.60
2019-06-10T03:30:24.018Z,10.03
2019-06-10T03:32:47.694Z,17.27
2019-06-10T03:35:19.121Z,12.93
2019-06-10T03:37:48.790Z,14.13
2019-06-10T03:40:18.512Z,12.20
2019-06-10T03:42:48.122Z,10.07
2019-06-10T03:45:19.217Z,13.30
2019-06-10T03:47:48.765Z,10.13
2019-06-10T03:50:19.223Z,16.73
2019-06-10T03:52:49.362Z,11.27
2019-06-10T03:55:19.365Z,12.10
2019-06-10T03:57:49.000Z,11.17
2019-06-10T04:00:19.476Z,11.07
2019-06-10T04:02:49.179Z,10.37
2019-06-10T04:05:19.429Z,10.13
2019-06-10T04:07:49.024Z,10.67
2019-06-10T04:10:19.555Z,10.03
2019-06-10T04:12:49.261Z,11.30
2019-06-10T04:15:19.665Z,12.20
2019-06-10T04:17:49.398Z,11.47
2019-06-10T04:20:19.750Z,9.70
2019-06-10T04:22:49.471Z,10.33
2019-06-10T04:25:19.836Z,10.60
2019-06-10T04:27:49.637Z,14.23
2019-06-10T04:30:20.166Z,15.20
2019-06-10T04:32:50.124Z,10.20
2019-06-10T04:35:20.875Z,10.90
2019-06-10T04:37:52.038Z,11.57
2019-06-10T04:40:23.526Z,11.20
2019-06-10T04:42:53.359Z,11.83
2019-06-10T04:45:23.593Z,11.80
2019-06-10T04:47:54.052Z,12.03
2019-06-10T04:50:34.553Z,8.80
2019-06-10T04:52:55.170Z,12.23
2019-06-10T04:55:26.158Z,10.60
2019-06-10T04:57:56.299Z,10.33
2019-06-10T05:00:27.631Z,10.20
2019-06-10T05:02:57.348Z,11.57
2019-06-10T05:05:27.304Z,12.20
2019-06-10T05:07:58.237Z,10.80
2019-06-10T05:10:28.379Z,11.07
2019-06-10T05:12:59.451Z,10.30
2019-06-10T05:15:31.543Z,10.67
2019-06-10T05:18:03.166Z,13.67
2019-06-10T05:20:46.742Z,11.40
2019-06-10T05:23:04.018Z,10.70
2019-06-10T05:25:33.538Z,10.67
2019-06-10T05:28:03.043Z,10.17
2019-06-10T05:30:34.060Z,9.23
2019-06-10T05:33:03.854Z,11.13
2019-06-10T05:35:34.016Z,9.80
2019-06-10T05:38:03.578Z,10.00
2019-06-10T05:40:34.257Z,9.53
2019-06-10T05:43:03.978Z,9.30
2019-06-10T05:45:35.173Z,8.70
2019-06-10T05:48:04.923Z,11.37
2019-06-10T05:50:35.131Z,10.20
2019-06-10T05:53:04.779Z,9.17
2019-06-10T05:55:35.263Z,8.83
2019-06-10T05:58:04.938Z,9.13
2019-06-10T06:00:35.551Z,9.27
2019-06-10T06:03:05.486Z,11.00
2019-06-10T06:05:37.629Z,9.80
2019-06-10T06:08:08.721Z,8.53
2019-06-10T06:10:42.506Z,9.90
2019-06-10T06:13:12.717Z,8.73
2019-06-10T06:15:42.493Z,8.30
2019-06-10T06:18:14.117Z,9.43
2019-06-10T06:20:44.675Z,7.23
2019-06-10T06:23:14.202Z,8.27
2019-06-10T06:25:46.888Z,7.20
2019-06-10T06:28:16.290Z,8.30
2019-06-10T06:30:46.063Z,7.43
2019-06-10T06:33:15.574Z,9.10
2019-06-10T06:35:46.597Z,7.43
2019-06-10T06:38:16.568Z,7.10
2019-06-10T06:40:46.084Z,8.73
2019-06-10T06:43:15.600Z,7.60
2019-06-10T06:45:45.504Z,6.83
2019-06-10T06:48:15.171Z,8.10
2019-06-10T06:51:00.366Z,8.30
2019-06-10T06:53:25.513Z,7.13
2019-06-10T06:55:47.270Z,6.67
2019-06-10T06:58:16.780Z,11.73
2019-06-10T07:01:00.711Z,7.30
2019-06-10T07:03:17.486Z,7.53
2019-06-10T07:05:47.782Z,9.00
2019-06-10T07:08:18.602Z,6.47
2019-06-10T07:10:48.290Z,7.67
2019-06-10T07:13:17.802Z,7.33
2019-06-10T07:15:49.197Z,7.20
2019-06-10T07:18:18.724Z,6.60
2019-06-10T07:20:48.347Z,6.90
2019-06-10T07:23:17.864Z,8.10
2019-06-10T07:25:47.812Z,7.20
2019-06-10T07:28:17.474Z,9.33
2019-06-10T07:30:51.690Z,6.97
2019-06-10T07:33:18.467Z,7.33
2019-06-10T07:35:47.979Z,7.73
2019-06-10T07:38:17.486Z,7.43
2019-06-10T07:40:47.022Z,6.87
2019-06-10T07:43:16.483Z,7.47
2019-06-10T07:45:48.073Z,7.67
2019-06-10T07:48:17.519Z,6.60
2019-06-10T07:50:47.034Z,6.80
2019-06-10T07:53:16.518Z,6.90
2019-06-10T07:55:46.712Z,7.37
2019-06-10T07:58:16.758Z,10.83
2019-06-10T08:00:48.379Z,7.80
2019-06-10T08:03:17.405Z,8.40
2019-06-10T08:05:47.590Z,7.27
2019-06-10T08:08:17.162Z,6.87
2019-06-10T08:10:48.178Z,8.60
2019-06-10T08:13:17.720Z,7.30
2019-06-10T08:15:48.371Z,5.90
2019-06-10T08:18:17.948Z,7.00
2019-06-10T08:21:08.609Z,7.20
2019-06-10T08:23:38.621Z,6.63
2019-06-10T08:26:08.227Z,8.13
2019-06-10T08:28:37.755Z,6.43
2019-06-10T08:31:07.278Z,6.73
2019-06-10T08:33:37.014Z,8.07
2019-06-10T08:36:06.563Z,7.13
2019-06-10T08:38:36.367Z,6.80
2019-06-10T08:41:06.404Z,7.63
2019-06-10T08:43:36.449Z,7.10
2019-06-10T08:46:06.054Z,7.60
2019-06-10T08:48:35.566Z,6.40
2019-06-10T08:51:05.251Z,7.47
2019-06-10T08:53:35.066Z,7.20
2019-06-10T08:56:04.594Z,6.40
2019-06-10T08:58:34.127Z,6.97
2019-06-10T09:01:03.627Z,8.40
2019-06-10T09:03:33.178Z,6.97
2019-06-10T09:06:03.403Z,6.63
2019-06-10T09:08:32.957Z,7.10
2019-06-10T09:11:02.641Z,7.63
2019-06-10T09:13:33.609Z,6.57
2019-06-10T09:16:14.678Z,6.13
2019-06-10T09:18:34.821Z,6.10
2019-06-10T09:21:04.375Z,6.10
2019-06-10T09:23:33.893Z,6.73
2019-06-10T09:26:03.800Z,7.60
2019-06-10T09:28:33.508Z,6.60
2019-06-10T09:31:04.332Z,6.50
2019-06-10T09:33:34.452Z,6.30
2019-06-10T09:36:04.310Z,7.20
2019-06-10T09:38:34.658Z,6.80
2019-06-10T09:41:06.171Z,5.70
2019-06-10T09:43:35.948Z,6.50
2019-06-10T09:46:05.585Z,6.40
2019-06-10T09:48:35.147Z,6.40
2019-06-10T09:51:04.666Z,6.90
2019-06-10T09:53:42.391Z,7.53
2019-06-10T09:56:05.687Z,6.20
2019-06-10T09:58:35.616Z,9.80
2019-06-10T10:01:05.187Z,6.77
2019-06-10T10:03:34.720Z,7.23
2019-06-10T10:06:14.576Z,6.43
2019-06-10T10:08:36.294Z,6.80
2019-06-10T10:11:05.860Z,6.63
2019-06-10T10:13:35.651Z,7.53
2019-06-10T10:16:05.683Z,6.70
2019-06-10T10:18:35.616Z,7.80
2019-06-10T10:21:05.640Z,7.00
2019-06-10T10:23:50.156Z,6.20
2019-06-10T10:26:06.537Z,7.90
2019-06-10T10:28:36.202Z,9.93
2019-06-10T10:31:05.762Z,7.47
2019-06-10T10:33:35.431Z,7.63
2019-06-10T10:36:04.976Z,6.73
2019-06-10T10:38:35.000Z,8.37
2019-06-10T10:41:05.019Z,7.73
2019-06-10T10:43:37.555Z,7.80
2019-06-10T10:46:06.340Z,7.70
2019-06-10T10:48:36.192Z,6.97
2019-06-10T10:51:05.842Z,6.77
2019-06-10T10:53:35.332Z,5.97
2019-06-10T10:56:05.193Z,6.87
2019-06-10T10:58:34.722Z,7.07
2019-06-10T11:01:04.880Z,6.60
2019-06-10T11:03:34.887Z,5.70
2019-06-10T11:06:04.445Z,6.47
2019-06-10T11:08:34.018Z,6.10
2019-06-10T11:11:05.757Z,6.30
2019-06-10T11:13:36.780Z,6.50
2019-06-10T11:16:06.587Z,5.97
2019-06-10T11:18:36.250Z,7.53
2019-06-10T11:21:05.884Z,6.47
2019-06-10T11:23:35.422Z,5.57
2019-06-10T11:26:05.447Z,7.70
2019-06-10T11:28:35.282Z,6.50
2019-06-10T11:31:04.872Z,7.20
2019-06-10T11:33:34.454Z,13.87
2019-06-10T11:36:04.772Z,7.00
2019-06-10T11:38:34.318Z,7.87
2019-06-10T11:41:03.847Z,8.10
2019-06-10T11:43:33.644Z,8.00
2019-06-10T11:46:07.494Z,7.83
2019-06-10T11:48:34.764Z,8.07
2019-06-10T11:51:04.897Z,8.20
2019-06-10T11:53:34.861Z,6.77
2019-06-10T11:56:04.850Z,7.37
2019-06-10T11:58:34.338Z,8.20
2019-06-10T12:01:04.210Z,6.70
2019-06-10T12:03:34.087Z,6.57
2019-06-10T12:06:05.182Z,7.77
2019-06-10T12:08:35.060Z,6.47
2019-06-10T12:11:04.612Z,9.43
2019-06-10T12:13:34.756Z,7.00
2019-06-10T12:17:05.136Z,7.57
2019-06-10T12:18:36.126Z,7.60
2019-06-10T12:21:05.703Z,7.30
2019-06-10T12:23:35.362Z,8.07
2019-06-10T12:26:05.383Z,7.40
2019-06-10T12:28:35.517Z,7.20
2019-06-10T12:31:07.025Z,7.37
2019-06-10T12:33:36.217Z,7.43
2019-06-10T12:36:07.432Z,7.40
2019-06-10T12:38:37.269Z,6.73
2019-06-10T12:41:10.302Z,7.37
2019-06-10T12:43:38.408Z,6.70
2019-06-10T12:46:07.930Z,6.17
2019-06-10T12:48:37.719Z,6.70
2019-06-10T12:51:09.431Z,6.07
2019-06-10T12:53:39.102Z,7.13
2019-06-10T12:56:11.338Z,6.63
2019-06-10T12:58:39.840Z,6.70
2019-06-10T13:01:11.570Z,5.50
2019-06-10T13:03:43.632Z,6.40
2019-06-10T13:06:13.855Z,5.93
2019-06-10T13:08:43.914Z,6.17
2019-06-10T13:11:14.985Z,4.20
2019-06-10T13:13:45.360Z,5.40
2019-06-10T13:16:15.336Z,5.83
2019-06-10T13:18:44.832Z,5.50
2019-06-10T13:21:17.626Z,4.93
2019-06-10T13:23:45.554Z,8.27
2019-06-10T13:26:16.597Z,5.73
2019-06-10T13:28:46.266Z,4.67
2019-06-10T13:31:15.782Z,5.27
2019-06-10T13:33:45.707Z,3.80
2019-06-10T13:36:15.308Z,4.17
2019-06-10T13:38:44.958Z,5.80
2019-06-10T13:41:14.582Z,5.47
2019-06-10T13:43:44.132Z,3.70
2019-06-10T13:46:13.598Z,4.60
2019-06-10T13:48:43.313Z,6.27
2019-06-10T13:51:15.544Z,5.17
2019-06-10T13:53:46.392Z,4.10
2019-06-10T13:56:37.836Z,4.00
2019-06-10T13:58:48.087Z,7.83
2019-06-10T14:01:22.080Z,4.30
2019-06-10T14:03:48.884Z,3.47
2019-06-10T14:06:37.044Z,3.67
2019-06-10T14:08:52.200Z,3.97
2019-06-10T14:11:25.800Z,3.63
2019-06-10T14:13:52.793Z,3.60
2019-06-10T14:16:23.397Z,3.67
2019-06-10T14:18:54.132Z,4.40
2019-06-10T14:21:23.894Z,4.60
2019-06-10T14:23:53.933Z,3.97
2019-06-10T14:26:36.852Z,5.70
2019-06-10T14:28:54.582Z,4.67
2019-06-10T14:31:39.167Z,5.87
2019-06-10T14:33:55.562Z,5.73
2019-06-10T14:36:25.087Z,4.90
2019-06-10T14:38:54.975Z,6.30
2019-06-10T14:41:26.078Z,5.13
2019-06-10T14:43:56.285Z,4.37
2019-06-10T14:46:25.839Z,5.70
2019-06-10T14:48:55.475Z,4.20
2019-06-10T14:51:25.287Z,4.10
2019-06-10T14:53:54.810Z,4.27
2019-06-10T14:56:24.352Z,3.40
2019-06-10T14:58:53.897Z,4.47
2019-06-10T15:01:25.246Z,4.47
2019-06-10T15:03:54.704Z,5.60
2019-06-10T15:06:24.915Z,4.50
2019-06-10T15:08:54.510Z,4.40
2019-06-10T15:11:27.547Z,4.43
2019-06-10T15:13:55.735Z,3.67
2019-06-10T15:16:26.073Z,4.37
2019-06-10T15:19:10.910Z,5.10
2019-06-10T15:21:26.812Z,4.30
2019-06-10T15:23:56.318Z,5.53
2019-06-10T15:26:26.442Z,3.90
2019-06-10T15:28:55.958Z,3.77
2019-06-10T15:31:25.526Z,3.90
2019-06-10T15:33:55.027Z,4.50
2019-06-10T15:36:24.562Z,5.00
2019-06-10T15:38:54.489Z,4.90
2019-06-10T15:41:24.703Z,4.80
2019-06-10T15:43:54.394Z,4.17
2019-06-10T15:46:23.903Z,5.10
2019-06-10T15:48:54.098Z,5.17
2019-06-10T15:51:26.112Z,4.47
2019-06-10T15:53:55.371Z,4.27
2019-06-10T15:56:38.676Z,5.63
2019-06-10T15:58:56.044Z,5.13
2019-06-10T16:01:27.422Z,4.33
2019-06-10T16:03:56.783Z,4.50
2019-06-10T16:06:26.314Z,5.30
2019-06-10T16:08:55.899Z,4.87
2019-06-10T16:11:27.179Z,4.77
2019-06-10T16:13:56.887Z,4.30
2019-06-10T16:16:26.409Z,5.90
2019-06-10T16:18:55.983Z,4.23
2019-06-10T16:21:25.598Z,5.20
2019-06-10T16:23:55.139Z,5.00
2019-06-10T16:26:26.722Z,4.70
2019-06-10T16:28:55.948Z,4.07
2019-06-10T16:31:27.541Z,3.93
2019-06-10T16:33:57.962Z,4.97
2019-06-10T16:36:28.205Z,4.20
2019-06-10T16:38:57.833Z,4.53
2019-06-10T16:41:28.092Z,6.10
2019-06-10T16:43:57.978Z,4.57
2019-06-10T16:46:29.089Z,4.77
2019-06-10T16:48:59.669Z,4.07
2019-06-10T16:51:29.898Z,4.23
2019-06-10T16:54:02.278Z,4.40
2019-06-10T16:56:33.578Z,4.57
2019-06-10T16:59:03.037Z,4.80
2019-06-10T17:01:33.340Z,7.07
2019-06-10T17:04:02.918Z,4.50
2019-06-10T17:06:33.029Z,4.63
2019-06-10T17:09:02.899Z,5.37
2019-06-10T17:11:32.508Z,4.53
2019-06-10T17:14:03.097Z,5.60
2019-06-10T17:16:33.027Z,5.60
2019-06-10T17:19:02.679Z,4.33
2019-06-10T17:21:34.598Z,5.70
2019-06-10T17:24:03.577Z,10.13
2019-06-10T17:26:37.932Z,4.53
2019-06-10T17:29:04.666Z,4.97
2019-06-10T17:31:35.153Z,6.57
2019-06-10T17:34:04.861Z,8.83
2019-06-10T17:36:35.390Z,4.20
2019-06-10T17:39:06.848Z,4.30
2019-06-10T17:41:36.440Z,4.23
2019-06-10T17:44:06.371Z,6.30
2019-06-10T17:46:36.044Z,4.30
2019-06-10T17:49:05.568Z,4.67
2019-06-10T17:51:35.664Z,4.40
2019-06-10T17:54:05.547Z,4.67
2019-06-10T17:56:36.240Z,6.03
2019-06-10T17:59:05.998Z,5.00
2019-06-10T18:01:35.736Z,5.43
2019-06-10T18:04:05.345Z,4.20
2019-06-10T18:06:36.458Z,3.63
2019-06-10T18:09:07.480Z,3.90
2019-06-10T18:11:37.074Z,3.73
2019-06-10T18:14:06.635Z,3.50
2019-06-10T18:16:36.673Z,3.93
2019-06-10T18:19:06.389Z,4.47
2019-06-10T18:21:36.467Z,4.60
2019-06-10T18:24:08.322Z,4.43
2019-06-10T18:26:38.005Z,4.73
2019-06-10T18:29:09.226Z,4.07
2019-06-10T18:31:39.292Z,4.70
2019-06-10T18:34:08.892Z,5.10
2019-06-10T18:36:38.414Z,5.77
2019-06-10T18:39:08.464Z,4.60
2019-06-10T18:41:40.070Z,5.07
2019-06-10T18:44:19.985Z,5.70
2019-06-10T18:46:43.257Z,6.03
2019-06-10T18:49:13.247Z,7.50
2019-06-10T18:51:43.470Z,7.73
2019-06-10T18:54:13.334Z,7.60
2019-06-10T18:56:43.720Z,8.57
2019-06-10T18:59:20.616Z,8.30
2019-06-10T19:01:44.955Z,8.73
2019-06-10T19:04:14.564Z,9.93
2019-06-10T19:06:44.167Z,9.27
2019-06-10T19:09:14.935Z,8.63
2019-06-10T19:11:44.581Z,8.90
2019-06-10T19:14:14.142Z,9.27
2019-06-10T19:16:43.863Z,10.10
2019-06-10T19:19:13.374Z,9.70
2019-06-10T19:21:44.082Z,9.27
2019-06-10T19:24:13.729Z,9.53
2019-06-10T19:26:45.168Z,10.00
2019-06-10T19:29:27.516Z,9.77
2019-06-10T19:31:46.364Z,11.17
2019-06-10T19:34:16.150Z,10.97
2019-06-10T19:36:45.702Z,12.60
2019-06-10T19:39:15.389Z,12.20
2019-06-10T19:41:47.205Z,11.47
2019-06-10T19:44:16.471Z,12.47
2019-06-10T19:46:46.396Z,12.67
2019-06-10T19:49:15.927Z,13.03
2019-06-10T19:51:46.841Z,14.57
2019-06-10T19:54:16.514Z,13.93
2019-06-10T19:56:46.034Z,13.47
2019-06-10T19:59:15.571Z,15.37
2019-06-10T20:01:48.248Z,15.00
2019-06-10T20:04:18.283Z,14.73
2019-06-10T20:06:50.689Z,14.83
2019-06-10T20:09:19.210Z,13.70
2019-06-10T20:11:48.738Z,13.27
2019-06-10T20:14:18.249Z,14.93
2019-06-10T20:16:48.186Z,15.03
2019-06-10T20:19:18.115Z,13.90
2019-06-10T20:21:49.003Z,14.93
2019-06-10T20:24:18.675Z,14.30
2019-06-10T20:26:48.331Z,15.13
2019-06-10T20:29:18.387Z,15.10
2019-06-10T20:31:48.947Z,16.10
2019-06-10T20:34:19.591Z,15.80
2019-06-10T20:36:50.243Z,16.10
2019-06-10T20:39:24.353Z,17.67
2019-06-10T20:41:54.816Z,15.90
2019-06-10T20:44:22.423Z,16.53
2019-06-10T20:46:52.869Z,14.90
2019-06-10T20:49:22.823Z,15.90
2019-06-10T20:52:06.627Z,16.23
2019-06-10T20:54:23.896Z,16.83
2019-06-10T20:56:53.716Z,16.20
2019-06-10T20:59:26.113Z,16.57
2019-06-10T21:01:54.926Z,16.47
2019-06-10T21:04:24.883Z,16.80
2019-06-10T21:06:56.759Z,18.40
2019-06-10T21:09:27.086Z,16.33
2019-06-10T21:11:57.068Z,17.23
2019-06-10T21:14:26.927Z,17.40
2019-06-10T21:16:56.479Z,16.23
2019-06-10T21:19:25.990Z,17.97
2019-06-10T21:21:55.537Z,19.43
2019-06-10T21:24:25.515Z,21.42
2019-06-10T21:26:55.123Z,20.40
2019-06-10T21:29:24.750Z,19.50
2019-06-10T21:31:54.975Z,20.10
2019-06-10T21:34:24.712Z,19.20
2019-06-10T21:36:54.512Z,19.97
2019-06-10T21:39:24.550Z,17.83
2019-06-10T21:41:54.793Z,21.00
2019-06-10T21:44:24.388Z,18.10
2019-06-10T21:46:53.991Z,17.03
2019-06-10T21:49:23.914Z,20.43
2019-06-10T21:51:56.584Z,17.77
2019-06-10T21:54:25.138Z,20.93
2019-06-10T21:56:55.638Z,19.13
2019-06-10T21:59:25.336Z,19.73
2019-06-10T22:01:55.179Z,20.37
2019-06-10T22:04:24.812Z,20.63
2019-06-10T22:06:55.971Z,22.20
2019-06-10T22:09:26.074Z,22.60
2019-06-10T22:11:55.986Z,24.10
2019-06-10T22:14:25.832Z,22.10
2019-06-10T22:16:56.481Z,23.50
2019-06-10T22:19:26.217Z,24.77
2019-06-10T22:21:56.709Z,25.23
2019-06-10T22:24:26.467Z,27.73
2019-06-10T22:26:56.474Z,24.90
2019-06-10T22:29:26.269Z,26.47
2019-06-10T22:31:57.180Z,25.90
2019-06-10T22:34:26.914Z,23.17
2019-06-10T22:36:57.619Z,27.90
2019-06-10T22:39:27.450Z,24.50
2019-06-10T22:41:57.352Z,26.10
2019-06-10T22:44:26.985Z,26.00
2019-06-10T22:46:57.282Z,24.87
2019-06-10T22:49:27.479Z,25.87
2019-06-10T22:51:58.971Z,27.57
2019-06-10T22:54:28.514Z,26.47
2019-06-10T22:56:58.564Z,25.87
2019-06-10T22:59:28.392Z,26.70
2019-06-10T23:01:59.964Z,27.20
2019-06-10T23:04:29.660Z,27.07
2019-06-10T23:07:00.594Z,26.53
2019-06-10T23:09:30.736Z,25.60
2019-06-10T23:12:02.659Z,26.90
2019-06-10T23:14:33.204Z,26.60
2019-06-10T23:17:03.390Z,25.97
2019-06-10T23:19:33.243Z,27.63
2019-06-10T23:22:03.162Z,30.50
2019-06-10T23:24:32.776Z,29.60
2019-06-10T23:27:03.329Z,30.30
2019-06-10T23:29:33.067Z,30.23
2019-06-10T23:32:06.730Z,30.93
2019-06-10T23:34:33.769Z,30.67
2019-06-10T23:37:03.355Z,33.70
2019-06-10T23:39:33.544Z,34.70
2019-06-10T23:42:04.287Z,32.10
2019-06-10T23:44:34.558Z,33.03
2019-06-10T23:47:04.478Z,33.10
2019-06-10T23:49:34.014Z,37.80
2019-06-10T23:52:05.385Z,35.90
2019-06-10T23:54:34.896Z,35.37
2019-06-10T23:57:05.993Z,36.77
2019-06-10T23:59:35.627Z,39.43
